Squantum, Massachusetts
Current Conditions -  °F | °C
As of 8:54 PM on Wednesday 26 Nov 2014 (Local Time) from KBOS Reporting Station
Light Snow Light Snow  
Wind Chill: 27°   Ceiling: 1200
Heat Index: 38°   Visibility: 3mi
Dew Point: 36°   Wind: 23mph
Humidity: 93%   Direction: 20°NNE
Pressure: 29.71"   Gusts: 30mph
Location:  42.2866°N, 71.0248°W
Report Text: KBOS 270154Z 02020G26KT 3SM -SNRA BR OVC012 03/02 A2971 RMK AO2 PK WND 01030/0057 SNB47 PRESFR SLP061 P0004 T00330022 $
Loading
Personal Weather Stations






























Interactive Weather Map New forecast layout! Learn more

10-Day Weather Forecast

Advertisements
Track Severe Weather on mobile